sensor_id;sensor_type;location;lat;lon;timestamp;P1;durP1;ratioP1;P2;durP2;ratioP2
23416;SDS011;11881;42.432;25.632;2022-08-21T00:01:03;13.43;;;6.80;;
23416;SDS011;11881;42.432;25.632;2022-08-21T00:03:32;9.33;;;6.30;;
23416;SDS011;11881;42.432;25.632;2022-08-21T00:05:58;10.47;;;5.20;;
23416;SDS011;11881;42.432;25.632;2022-08-21T00:08:23;11.07;;;6.13;;
23416;SDS011;11881;42.432;25.632;2022-08-21T00:10:49;12.13;;;6.30;;
23416;SDS011;11881;42.432;25.632;2022-08-21T00:13:15;10.40;;;5.60;;
23416;SDS011;11881;42.432;25.632;2022-08-21T00:15:42;8.47;;;5.93;;
23416;SDS011;11881;42.432;25.632;2022-08-21T00:18:10;11.30;;;5.77;;
23416;SDS011;11881;42.432;25.632;2022-08-21T00:20:37;10.60;;;5.87;;
23416;SDS011;11881;42.432;25.632;2022-08-21T00:23:03;11.17;;;5.80;;
23416;SDS011;11881;42.432;25.632;2022-08-21T00:25:29;8.90;;;5.90;;
23416;SDS011;11881;42.432;25.632;2022-08-21T00:27:54;10.07;;;5.60;;
23416;SDS011;11881;42.432;25.632;2022-08-21T00:30:21;9.43;;;6.07;;
23416;SDS011;11881;42.432;25.632;2022-08-21T00:32:48;11.03;;;6.00;;
23416;SDS011;11881;42.432;25.632;2022-08-21T00:35:15;12.40;;;5.90;;
23416;SDS011;11881;42.432;25.632;2022-08-21T00:37:42;11.17;;;5.67;;
23416;SDS011;11881;42.432;25.632;2022-08-21T00:40:18;8.17;;;5.57;;
23416;SDS011;11881;42.432;25.632;2022-08-21T00:42:46;13.00;;;5.70;;
23416;SDS011;11881;42.432;25.632;2022-08-21T00:45:12;8.90;;;5.57;;
23416;SDS011;11881;42.432;25.632;2022-08-21T00:47:38;10.10;;;6.13;;
23416;SDS011;11881;42.432;25.632;2022-08-21T00:50:05;10.27;;;6.03;;
23416;SDS011;11881;42.432;25.632;2022-08-21T00:52:33;12.60;;;6.57;;
23416;SDS011;11881;42.432;25.632;2022-08-21T00:55:00;10.43;;;5.87;;
23416;SDS011;11881;42.432;25.632;2022-08-21T00:57:28;9.90;;;6.33;;
23416;SDS011;11881;42.432;25.632;2022-08-21T00:59:56;13.30;;;6.00;;
23416;SDS011;11881;42.432;25.632;2022-08-21T01:02:26;12.40;;;5.90;;
23416;SDS011;11881;42.432;25.632;2022-08-21T01:04:52;10.83;;;5.77;;
23416;SDS011;11881;42.432;25.632;2022-08-21T01:07:18;10.70;;;6.70;;
23416;SDS011;11881;42.432;25.632;2022-08-21T01:09:45;9.80;;;5.60;;
23416;SDS011;11881;42.432;25.632;2022-08-21T01:12:12;8.87;;;6.00;;
23416;SDS011;11881;42.432;25.632;2022-08-21T01:14:38;9.67;;;6.27;;
23416;SDS011;11881;42.432;25.632;2022-08-21T01:17:07;9.33;;;5.90;;
23416;SDS011;11881;42.432;25.632;2022-08-21T01:19:35;11.40;;;6.37;;
23416;SDS011;11881;42.432;25.632;2022-08-21T01:22:00;9.13;;;6.00;;
23416;SDS011;11881;42.432;25.632;2022-08-21T01:24:26;10.20;;;6.40;;
23416;SDS011;11881;42.432;25.632;2022-08-21T01:26:51;9.37;;;5.53;;
23416;SDS011;11881;42.432;25.632;2022-08-21T01:31:55;9.00;;;5.60;;
23416;SDS011;11881;42.432;25.632;2022-08-21T01:34:21;9.57;;;5.70;;
23416;SDS011;11881;42.432;25.632;2022-08-21T01:36:47;11.33;;;6.37;;
23416;SDS011;11881;42.432;25.632;2022-08-21T01:39:13;16.20;;;7.53;;
23416;SDS011;11881;42.432;25.632;2022-08-21T01:41:39;15.03;;;7.37;;
23416;SDS011;11881;42.432;25.632;2022-08-21T01:44:05;12.13;;;6.20;;
23416;SDS011;11881;42.432;25.632;2022-08-21T01:46:30;12.93;;;7.03;;
23416;SDS011;11881;42.432;25.632;2022-08-21T01:48:56;14.73;;;7.10;;
23416;SDS011;11881;42.432;25.632;2022-08-21T01:51:22;13.33;;;5.93;;
23416;SDS011;11881;42.432;25.632;2022-08-21T01:53:47;8.80;;;6.37;;
23416;SDS011;11881;42.432;25.632;2022-08-21T01:56:15;14.17;;;7.20;;
23416;SDS011;11881;42.432;25.632;2022-08-21T01:58:42;7.90;;;6.53;;
23416;SDS011;11881;42.432;25.632;2022-08-21T02:01:09;9.30;;;6.47;;
23416;SDS011;11881;42.432;25.632;2022-08-21T02:03:35;9.50;;;6.10;;
23416;SDS011;11881;42.432;25.632;2022-08-21T02:06:00;10.43;;;7.20;;
23416;SDS011;11881;42.432;25.632;2022-08-21T02:08:27;10.53;;;6.57;;
23416;SDS011;11881;42.432;25.632;2022-08-21T02:10:53;9.97;;;6.73;;
23416;SDS011;11881;42.432;25.632;2022-08-21T02:13:19;9.43;;;7.07;;
23416;SDS011;11881;42.432;25.632;2022-08-21T02:15:44;8.87;;;7.37;;
23416;SDS011;11881;42.432;25.632;2022-08-21T02:18:10;8.63;;;6.43;;
23416;SDS011;11881;42.432;25.632;2022-08-21T02:20:38;11.73;;;6.67;;
23416;SDS011;11881;42.432;25.632;2022-08-21T02:23:06;9.63;;;6.63;;
23416;SDS011;11881;42.432;25.632;2022-08-21T02:25:32;10.83;;;6.50;;
23416;SDS011;11881;42.432;25.632;2022-08-21T02:27:59;14.60;;;7.13;;
23416;SDS011;11881;42.432;25.632;2022-08-21T02:30:28;14.87;;;7.03;;
23416;SDS011;11881;42.432;25.632;2022-08-21T02:32:55;10.50;;;6.77;;
23416;SDS011;11881;42.432;25.632;2022-08-21T02:35:21;13.27;;;7.13;;
23416;SDS011;11881;42.432;25.632;2022-08-21T02:37:48;11.10;;;6.33;;
23416;SDS011;11881;42.432;25.632;2022-08-21T02:40:14;13.53;;;6.60;;
23416;SDS011;11881;42.432;25.632;2022-08-21T02:42:42;12.40;;;6.97;;
23416;SDS011;11881;42.432;25.632;2022-08-21T02:45:08;13.70;;;6.67;;
23416;SDS011;11881;42.432;25.632;2022-08-21T02:47:35;9.93;;;6.50;;
23416;SDS011;11881;42.432;25.632;2022-08-21T02:50:00;14.83;;;6.63;;
23416;SDS011;11881;42.432;25.632;2022-08-21T02:52:26;12.17;;;6.07;;
23416;SDS011;11881;42.432;25.632;2022-08-21T02:54:51;11.50;;;6.67;;
23416;SDS011;11881;42.432;25.632;2022-08-21T02:57:17;11.47;;;6.63;;
23416;SDS011;11881;42.432;25.632;2022-08-21T02:59:42;16.07;;;6.57;;
23416;SDS011;11881;42.432;25.632;2022-08-21T03:02:07;12.67;;;6.97;;
23416;SDS011;11881;42.432;25.632;2022-08-21T03:04:33;13.27;;;6.80;;
23416;SDS011;11881;42.432;25.632;2022-08-21T03:06:58;12.43;;;7.50;;
23416;SDS011;11881;42.432;25.632;2022-08-21T03:09:24;13.50;;;6.40;;
23416;SDS011;11881;42.432;25.632;2022-08-21T03:11:50;10.87;;;6.50;;
23416;SDS011;11881;42.432;25.632;2022-08-21T03:14:16;16.53;;;6.73;;
23416;SDS011;11881;42.432;25.632;2022-08-21T03:16:42;11.93;;;6.93;;
23416;SDS011;11881;42.432;25.632;2022-08-21T03:19:08;14.07;;;6.87;;
23416;SDS011;11881;42.432;25.632;2022-08-21T03:21:33;14.87;;;6.97;;
23416;SDS011;11881;42.432;25.632;2022-08-21T03:23:58;12.83;;;6.77;;
23416;SDS011;11881;42.432;25.632;2022-08-21T03:26:24;12.50;;;7.43;;
23416;SDS011;11881;42.432;25.632;2022-08-21T03:28:49;14.77;;;7.53;;
23416;SDS011;11881;42.432;25.632;2022-08-21T03:31:15;13.83;;;7.43;;
23416;SDS011;11881;42.432;25.632;2022-08-21T03:33:42;13.73;;;6.80;;
23416;SDS011;11881;42.432;25.632;2022-08-21T03:36:08;11.33;;;7.60;;
23416;SDS011;11881;42.432;25.632;2022-08-21T03:38:35;15.47;;;7.60;;
23416;SDS011;11881;42.432;25.632;2022-08-21T03:41:02;13.97;;;6.73;;
23416;SDS011;11881;42.432;25.632;2022-08-21T03:43:28;11.57;;;7.43;;
23416;SDS011;11881;42.432;25.632;2022-08-21T03:45:54;12.07;;;7.23;;
23416;SDS011;11881;42.432;25.632;2022-08-21T03:48:19;17.83;;;7.73;;
23416;SDS011;11881;42.432;25.632;2022-08-21T03:50:45;11.10;;;6.87;;
23416;SDS011;11881;42.432;25.632;2022-08-21T03:53:12;12.97;;;6.70;;
23416;SDS011;11881;42.432;25.632;2022-08-21T03:55:39;11.97;;;7.33;;
23416;SDS011;11881;42.432;25.632;2022-08-21T03:58:05;14.60;;;6.63;;
23416;SDS011;11881;42.432;25.632;2022-08-21T04:00:30;14.73;;;6.50;;
23416;SDS011;11881;42.432;25.632;2022-08-21T04:02:56;9.23;;;5.93;;
23416;SDS011;11881;42.432;25.632;2022-08-21T04:05:22;17.17;;;6.20;;
23416;SDS011;11881;42.432;25.632;2022-08-21T04:07:58;9.83;;;6.47;;
23416;SDS011;11881;42.432;25.632;2022-08-21T04:10:26;12.10;;;6.80;;
23416;SDS011;11881;42.432;25.632;2022-08-21T04:12:54;11.97;;;5.80;;
23416;SDS011;11881;42.432;25.632;2022-08-21T04:15:20;12.10;;;6.00;;
23416;SDS011;11881;42.432;25.632;2022-08-21T04:17:46;8.90;;;5.93;;
23416;SDS011;11881;42.432;25.632;2022-08-21T04:20:13;10.10;;;5.73;;
23416;SDS011;11881;42.432;25.632;2022-08-21T04:22:39;10.37;;;6.00;;
23416;SDS011;11881;42.432;25.632;2022-08-21T04:25:05;12.13;;;5.30;;
23416;SDS011;11881;42.432;25.632;2022-08-21T04:27:32;10.93;;;5.63;;
23416;SDS011;11881;42.432;25.632;2022-08-21T04:29:57;10.10;;;5.27;;
23416;SDS011;11881;42.432;25.632;2022-08-21T04:32:23;13.47;;;5.53;;
23416;SDS011;11881;42.432;25.632;2022-08-21T04:34:49;8.40;;;5.33;;
23416;SDS011;11881;42.432;25.632;2022-08-21T04:37:15;11.93;;;5.87;;
23416;SDS011;11881;42.432;25.632;2022-08-21T04:39:41;8.10;;;5.63;;
23416;SDS011;11881;42.432;25.632;2022-08-21T04:42:07;13.93;;;5.47;;
23416;SDS011;11881;42.432;25.632;2022-08-21T04:44:33;13.47;;;5.87;;
23416;SDS011;11881;42.432;25.632;2022-08-21T04:46:59;12.53;;;6.20;;
23416;SDS011;11881;42.432;25.632;2022-08-21T04:49:24;15.87;;;5.63;;
23416;SDS011;11881;42.432;25.632;2022-08-21T04:51:49;12.03;;;6.33;;
23416;SDS011;11881;42.432;25.632;2022-08-21T04:54:24;11.40;;;5.30;;
23416;SDS011;11881;42.432;25.632;2022-08-21T04:56:54;10.47;;;6.37;;
23416;SDS011;11881;42.432;25.632;2022-08-21T04:59:26;9.43;;;5.80;;
23416;SDS011;11881;42.432;25.632;2022-08-21T05:01:55;12.03;;;5.97;;
23416;SDS011;11881;42.432;25.632;2022-08-21T05:04:23;11.07;;;6.40;;
23416;SDS011;11881;42.432;25.632;2022-08-21T05:06:51;12.87;;;5.60;;
23416;SDS011;11881;42.432;25.632;2022-08-21T05:09:20;13.37;;;5.80;;
23416;SDS011;11881;42.432;25.632;2022-08-21T05:11:47;11.27;;;5.43;;
23416;SDS011;11881;42.432;25.632;2022-08-21T05:14:13;10.67;;;6.17;;
23416;SDS011;11881;42.432;25.632;2022-08-21T05:16:39;11.57;;;6.00;;
23416;SDS011;11881;42.432;25.632;2022-08-21T05:19:07;9.47;;;5.73;;
23416;SDS011;11881;42.432;25.632;2022-08-21T05:21:33;11.13;;;6.17;;
23416;SDS011;11881;42.432;25.632;2022-08-21T05:23:59;9.37;;;5.33;;
23416;SDS011;11881;42.432;25.632;2022-08-21T05:26:25;12.57;;;6.67;;
23416;SDS011;11881;42.432;25.632;2022-08-21T05:28:50;14.03;;;5.60;;
23416;SDS011;11881;42.432;25.632;2022-08-21T05:31:17;12.63;;;6.70;;
23416;SDS011;11881;42.432;25.632;2022-08-21T05:33:42;12.33;;;6.57;;
23416;SDS011;11881;42.432;25.632;2022-08-21T05:36:08;15.50;;;6.40;;
23416;SDS011;11881;42.432;25.632;2022-08-21T05:38:34;8.37;;;6.07;;
23416;SDS011;11881;42.432;25.632;2022-08-21T05:40:59;11.00;;;6.07;;
23416;SDS011;11881;42.432;25.632;2022-08-21T05:43:24;13.47;;;6.80;;
23416;SDS011;11881;42.432;25.632;2022-08-21T05:45:50;11.77;;;6.93;;
23416;SDS011;11881;42.432;25.632;2022-08-21T05:48:17;11.23;;;6.87;;
23416;SDS011;11881;42.432;25.632;2022-08-21T05:50:45;15.47;;;6.63;;
23416;SDS011;11881;42.432;25.632;2022-08-21T05:53:12;11.60;;;6.50;;
23416;SDS011;11881;42.432;25.632;2022-08-21T05:55:39;15.00;;;6.87;;
23416;SDS011;11881;42.432;25.632;2022-08-21T05:58:05;12.10;;;7.03;;
23416;SDS011;11881;42.432;25.632;2022-08-21T06:00:31;14.80;;;7.47;;
23416;SDS011;11881;42.432;25.632;2022-08-21T06:02:57;11.00;;;7.30;;
23416;SDS011;11881;42.432;25.632;2022-08-21T06:05:23;15.40;;;8.17;;
23416;SDS011;11881;42.432;25.632;2022-08-21T06:07:48;11.73;;;7.23;;
23416;SDS011;11881;42.432;25.632;2022-08-21T06:10:14;13.07;;;7.53;;
23416;SDS011;11881;42.432;25.632;2022-08-21T06:12:39;16.57;;;7.80;;
23416;SDS011;11881;42.432;25.632;2022-08-21T06:15:05;13.47;;;7.80;;
23416;SDS011;11881;42.432;25.632;2022-08-21T06:17:31;12.20;;;7.37;;
23416;SDS011;11881;42.432;25.632;2022-08-21T06:19:56;14.60;;;7.30;;
23416;SDS011;11881;42.432;25.632;2022-08-21T06:22:21;18.53;;;8.07;;
23416;SDS011;11881;42.432;25.632;2022-08-21T06:24:47;8.47;;;6.50;;
23416;SDS011;11881;42.432;25.632;2022-08-21T06:27:13;14.00;;;7.67;;
23416;SDS011;11881;42.432;25.632;2022-08-21T06:29:40;17.30;;;7.40;;
23416;SDS011;11881;42.432;25.632;2022-08-21T06:32:05;13.03;;;6.90;;
23416;SDS011;11881;42.432;25.632;2022-08-21T06:34:37;10.33;;;6.63;;
23416;SDS011;11881;42.432;25.632;2022-08-21T06:37:04;16.97;;;6.57;;
23416;SDS011;11881;42.432;25.632;2022-08-21T06:39:30;11.87;;;6.00;;
23416;SDS011;11881;42.432;25.632;2022-08-21T06:41:56;13.67;;;6.93;;
23416;SDS011;11881;42.432;25.632;2022-08-21T06:44:21;16.00;;;7.30;;
23416;SDS011;11881;42.432;25.632;2022-08-21T06:46:47;11.10;;;6.53;;
23416;SDS011;11881;42.432;25.632;2022-08-21T06:49:13;11.77;;;6.63;;
23416;SDS011;11881;42.432;25.632;2022-08-21T06:51:39;11.53;;;6.80;;
23416;SDS011;11881;42.432;25.632;2022-08-21T06:54:04;15.13;;;7.03;;
23416;SDS011;11881;42.432;25.632;2022-08-21T06:56:30;17.87;;;7.10;;
23416;SDS011;11881;42.432;25.632;2022-08-21T06:58:55;10.57;;;6.30;;
23416;SDS011;11881;42.432;25.632;2022-08-21T07:01:22;13.27;;;7.23;;
23416;SDS011;11881;42.432;25.632;2022-08-21T07:03:50;18.53;;;7.20;;
23416;SDS011;11881;42.432;25.632;2022-08-21T07:06:15;17.27;;;6.17;;
23416;SDS011;11881;42.432;25.632;2022-08-21T07:08:42;8.63;;;6.57;;
23416;SDS011;11881;42.432;25.632;2022-08-21T07:11:09;10.80;;;6.33;;
23416;SDS011;11881;42.432;25.632;2022-08-21T07:13:46;10.93;;;5.60;;
23416;SDS011;11881;42.432;25.632;2022-08-21T07:16:11;12.63;;;6.07;;
23416;SDS011;11881;42.432;25.632;2022-08-21T07:18:37;12.60;;;5.87;;
23416;SDS011;11881;42.432;25.632;2022-08-21T07:21:02;11.60;;;6.03;;
23416;SDS011;11881;42.432;25.632;2022-08-21T07:23:31;19.03;;;5.93;;
23416;SDS011;11881;42.432;25.632;2022-08-21T07:26:00;16.57;;;6.27;;
23416;SDS011;11881;42.432;25.632;2022-08-21T07:28:26;17.57;;;5.90;;
23416;SDS011;11881;42.432;25.632;2022-08-21T07:30:53;13.40;;;6.30;;
23416;SDS011;11881;42.432;25.632;2022-08-21T07:33:20;11.43;;;6.23;;
23416;SDS011;11881;42.432;25.632;2022-08-21T07:35:46;14.33;;;6.67;;
23416;SDS011;11881;42.432;25.632;2022-08-21T07:38:12;14.30;;;6.87;;
23416;SDS011;11881;42.432;25.632;2022-08-21T07:40:37;14.53;;;5.80;;
23416;SDS011;11881;42.432;25.632;2022-08-21T07:43:03;14.30;;;6.80;;
23416;SDS011;11881;42.432;25.632;2022-08-21T07:45:29;14.07;;;7.77;;
23416;SDS011;11881;42.432;25.632;2022-08-21T07:47:54;14.33;;;6.57;;
23416;SDS011;11881;42.432;25.632;2022-08-21T07:50:20;11.40;;;6.53;;
23416;SDS011;11881;42.432;25.632;2022-08-21T07:52:46;14.07;;;6.47;;
23416;SDS011;11881;42.432;25.632;2022-08-21T07:55:13;14.03;;;6.93;;
23416;SDS011;11881;42.432;25.632;2022-08-21T07:57:41;13.13;;;6.67;;
23416;SDS011;11881;42.432;25.632;2022-08-21T08:00:07;13.43;;;6.80;;
23416;SDS011;11881;42.432;25.632;2022-08-21T08:02:35;14.17;;;7.20;;
23416;SDS011;11881;42.432;25.632;2022-08-21T08:05:02;14.43;;;7.37;;
23416;SDS011;11881;42.432;25.632;2022-08-21T08:07:29;11.73;;;6.87;;
23416;SDS011;11881;42.432;25.632;2022-08-21T08:09:55;16.03;;;6.70;;
23416;SDS011;11881;42.432;25.632;2022-08-21T08:12:20;12.87;;;6.47;;
23416;SDS011;11881;42.432;25.632;2022-08-21T08:14:46;12.13;;;5.57;;
23416;SDS011;11881;42.432;25.632;2022-08-21T08:17:12;9.87;;;6.10;;
23416;SDS011;11881;42.432;25.632;2022-08-21T08:19:38;8.40;;;6.30;;
23416;SDS011;11881;42.432;25.632;2022-08-21T08:22:16;10.27;;;6.00;;
23416;SDS011;11881;42.432;25.632;2022-08-21T08:24:49;8.57;;;5.43;;
23416;SDS011;11881;42.432;25.632;2022-08-21T08:27:16;12.33;;;6.33;;
23416;SDS011;11881;42.432;25.632;2022-08-21T08:29:42;16.73;;;5.90;;
23416;SDS011;11881;42.432;25.632;2022-08-21T08:32:08;8.70;;;5.60;;
23416;SDS011;11881;42.432;25.632;2022-08-21T08:34:34;11.43;;;5.63;;
23416;SDS011;11881;42.432;25.632;2022-08-21T08:37:00;11.33;;;5.67;;
23416;SDS011;11881;42.432;25.632;2022-08-21T08:39:25;16.87;;;6.23;;
23416;SDS011;11881;42.432;25.632;2022-08-21T08:41:56;14.50;;;6.60;;
23416;SDS011;11881;42.432;25.632;2022-08-21T08:44:28;13.70;;;6.27;;
23416;SDS011;11881;42.432;25.632;2022-08-21T08:46:55;14.20;;;6.27;;
23416;SDS011;11881;42.432;25.632;2022-08-21T08:52:03;12.67;;;7.00;;
23416;SDS011;11881;42.432;25.632;2022-08-21T08:57:02;13.57;;;5.80;;
23416;SDS011;11881;42.432;25.632;2022-08-21T08:59:41;8.93;;;5.80;;
23416;SDS011;11881;42.432;25.632;2022-08-21T09:02:13;10.50;;;5.70;;
23416;SDS011;11881;42.432;25.632;2022-08-21T09:04:40;10.40;;;6.63;;
23416;SDS011;11881;42.432;25.632;2022-08-21T09:09:51;11.77;;;6.13;;
23416;SDS011;11881;42.432;25.632;2022-08-21T09:15:38;12.57;;;8.27;;
23416;SDS011;11881;42.432;25.632;2022-08-21T09:21:00;14.93;;;8.10;;
23416;SDS011;11881;42.432;25.632;2022-08-21T09:26:18;15.23;;;6.63;;
23416;SDS011;11881;42.432;25.632;2022-08-21T09:28:46;12.77;;;6.63;;
23416;SDS011;11881;42.432;25.632;2022-08-21T09:31:25;15.73;;;7.13;;
23416;SDS011;11881;42.432;25.632;2022-08-21T09:34:00;12.03;;;7.67;;
23416;SDS011;11881;42.432;25.632;2022-08-21T09:39:09;13.53;;;6.70;;
23416;SDS011;11881;42.432;25.632;2022-08-21T09:41:36;15.00;;;7.77;;
23416;SDS011;11881;42.432;25.632;2022-08-21T09:44:04;15.50;;;8.63;;
23416;SDS011;11881;42.432;25.632;2022-08-21T09:46:31;11.00;;;8.13;;
23416;SDS011;11881;42.432;25.632;2022-08-21T09:48:58;11.77;;;8.47;;
23416;SDS011;11881;42.432;25.632;2022-08-21T09:51:27;12.73;;;10.00;;
23416;SDS011;11881;42.432;25.632;2022-08-21T09:56:33;12.23;;;9.93;;
23416;SDS011;11881;42.432;25.632;2022-08-21T09:59:30;12.73;;;10.20;;
23416;SDS011;11881;42.432;25.632;2022-08-21T10:01:58;16.10;;;10.30;;
23416;SDS011;11881;42.432;25.632;2022-08-21T10:04:28;13.73;;;9.30;;
23416;SDS011;11881;42.432;25.632;2022-08-21T10:07:12;12.20;;;9.30;;
23416;SDS011;11881;42.432;25.632;2022-08-21T10:09:39;13.93;;;9.23;;
23416;SDS011;11881;42.432;25.632;2022-08-21T10:12:12;15.33;;;9.00;;
23416;SDS011;11881;42.432;25.632;2022-08-21T10:20:14;12.53;;;8.97;;
23416;SDS011;11881;42.432;25.632;2022-08-21T10:22:47;13.10;;;9.07;;
23416;SDS011;11881;42.432;25.632;2022-08-21T10:28:05;17.20;;;10.80;;
23416;SDS011;11881;42.432;25.632;2022-08-21T10:30:46;15.20;;;9.43;;
23416;SDS011;11881;42.432;25.632;2022-08-21T10:35:58;13.20;;;9.17;;
23416;SDS011;11881;42.432;25.632;2022-08-21T10:44:23;11.77;;;8.57;;
23416;SDS011;11881;42.432;25.632;2022-08-21T10:47:15;15.87;;;10.00;;
23416;SDS011;11881;42.432;25.632;2022-08-21T10:55:00;16.70;;;10.13;;
23416;SDS011;11881;42.432;25.632;2022-08-21T10:57:51;14.70;;;9.30;;
23416;SDS011;11881;42.432;25.632;2022-08-21T11:00:23;12.37;;;9.17;;
23416;SDS011;11881;42.432;25.632;2022-08-21T11:03:10;17.00;;;9.23;;
23416;SDS011;11881;42.432;25.632;2022-08-21T11:05:46;12.37;;;9.20;;
23416;SDS011;11881;42.432;25.632;2022-08-21T11:08:21;11.20;;;9.00;;
23416;SDS011;11881;42.432;25.632;2022-08-21T11:13:45;11.07;;;9.27;;
23416;SDS011;11881;42.432;25.632;2022-08-21T11:29:58;11.50;;;8.77;;
23416;SDS011;11881;42.432;25.632;2022-08-21T11:35:19;12.37;;;9.10;;
23416;SDS011;11881;42.432;25.632;2022-08-21T11:51:20;12.67;;;8.60;;
23416;SDS011;11881;42.432;25.632;2022-08-21T11:53:58;10.93;;;8.00;;
23416;SDS011;11881;42.432;25.632;2022-08-21T11:56:42;13.17;;;8.63;;
23416;SDS011;11881;42.432;25.632;2022-08-21T11:59:22;14.60;;;7.90;;
23416;SDS011;11881;42.432;25.632;2022-08-21T12:01:54;14.93;;;8.60;;
23416;SDS011;11881;42.432;25.632;2022-08-21T12:04:44;14.20;;;8.47;;
23416;SDS011;11881;42.432;25.632;2022-08-21T12:09:56;13.87;;;8.87;;
23416;SDS011;11881;42.432;25.632;2022-08-21T12:12:27;13.23;;;8.70;;
23416;SDS011;11881;42.432;25.632;2022-08-21T12:15:05;13.20;;;8.60;;
23416;SDS011;11881;42.432;25.632;2022-08-21T12:17:36;16.57;;;9.03;;
23416;SDS011;11881;42.432;25.632;2022-08-21T12:20:18;13.77;;;8.60;;
23416;SDS011;11881;42.432;25.632;2022-08-21T12:23:04;15.07;;;8.37;;
23416;SDS011;11881;42.432;25.632;2022-08-21T12:28:23;13.57;;;7.93;;
23416;SDS011;11881;42.432;25.632;2022-08-21T12:30:50;23.40;;;19.33;;
23416;SDS011;11881;42.432;25.632;2022-08-21T12:33:23;10.90;;;6.97;;
23416;SDS011;11881;42.432;25.632;2022-08-21T12:35:49;12.07;;;8.47;;
23416;SDS011;11881;42.432;25.632;2022-08-21T12:38:18;13.30;;;7.60;;
23416;SDS011;11881;42.432;25.632;2022-08-21T12:40:55;8.50;;;6.57;;
23416;SDS011;11881;42.432;25.632;2022-08-21T12:43:40;9.47;;;7.00;;
23416;SDS011;11881;42.432;25.632;2022-08-21T12:46:21;10.47;;;8.17;;
23416;SDS011;11881;42.432;25.632;2022-08-21T12:48:57;12.23;;;7.10;;
23416;SDS011;11881;42.432;25.632;2022-08-21T12:51:29;12.60;;;6.73;;
23416;SDS011;11881;42.432;25.632;2022-08-21T12:54:01;9.33;;;6.83;;
23416;SDS011;11881;42.432;25.632;2022-08-21T12:56:28;11.67;;;7.33;;
23416;SDS011;11881;42.432;25.632;2022-08-21T12:58:57;9.70;;;7.27;;
23416;SDS011;11881;42.432;25.632;2022-08-21T13:04:26;8.30;;;6.40;;
23416;SDS011;11881;42.432;25.632;2022-08-21T13:07:07;9.23;;;6.77;;
23416;SDS011;11881;42.432;25.632;2022-08-21T13:09:36;11.73;;;6.50;;
23416;SDS011;11881;42.432;25.632;2022-08-21T13:12:11;7.17;;;6.17;;
23416;SDS011;11881;42.432;25.632;2022-08-21T13:14:41;11.03;;;6.17;;
23416;SDS011;11881;42.432;25.632;2022-08-21T13:17:09;9.23;;;6.17;;
23416;SDS011;11881;42.432;25.632;2022-08-21T13:19:36;14.50;;;6.87;;
23416;SDS011;11881;42.432;25.632;2022-08-21T13:22:02;8.63;;;6.30;;
23416;SDS011;11881;42.432;25.632;2022-08-21T13:24:29;9.40;;;6.63;;
23416;SDS011;11881;42.432;25.632;2022-08-21T13:26:57;11.60;;;6.40;;
23416;SDS011;11881;42.432;25.632;2022-08-21T13:29:27;11.30;;;6.87;;
23416;SDS011;11881;42.432;25.632;2022-08-21T13:32:04;10.13;;;6.57;;
23416;SDS011;11881;42.432;25.632;2022-08-21T13:34:35;11.90;;;6.43;;
23416;SDS011;11881;42.432;25.632;2022-08-21T13:37:06;7.43;;;6.50;;
23416;SDS011;11881;42.432;25.632;2022-08-21T13:39:35;9.03;;;6.13;;
23416;SDS011;11881;42.432;25.632;2022-08-21T13:42:03;12.10;;;6.67;;
23416;SDS011;11881;42.432;25.632;2022-08-21T13:44:35;13.57;;;6.57;;
23416;SDS011;11881;42.432;25.632;2022-08-21T13:47:05;11.83;;;6.90;;
23416;SDS011;11881;42.432;25.632;2022-08-21T13:49:36;11.40;;;6.57;;
23416;SDS011;11881;42.432;25.632;2022-08-21T13:52:05;10.03;;;6.67;;
23416;SDS011;11881;42.432;25.632;2022-08-21T13:54:41;12.87;;;7.37;;
23416;SDS011;11881;42.432;25.632;2022-08-21T13:57:16;11.80;;;7.10;;
23416;SDS011;11881;42.432;25.632;2022-08-21T13:59:44;9.33;;;6.90;;
23416;SDS011;11881;42.432;25.632;2022-08-21T14:02:14;16.00;;;7.13;;
23416;SDS011;11881;42.432;25.632;2022-08-21T14:04:51;11.83;;;7.27;;
23416;SDS011;11881;42.432;25.632;2022-08-21T14:07:26;11.83;;;7.07;;
23416;SDS011;11881;42.432;25.632;2022-08-21T14:09:55;12.77;;;7.20;;
23416;SDS011;11881;42.432;25.632;2022-08-21T14:12:33;10.20;;;6.90;;
23416;SDS011;11881;42.432;25.632;2022-08-21T14:15:23;11.50;;;7.07;;
23416;SDS011;11881;42.432;25.632;2022-08-21T14:17:54;16.97;;;7.97;;
23416;SDS011;11881;42.432;25.632;2022-08-21T14:20:33;13.80;;;7.17;;
23416;SDS011;11881;42.432;25.632;2022-08-21T14:23:00;11.80;;;7.37;;
23416;SDS011;11881;42.432;25.632;2022-08-21T14:25:35;17.50;;;6.80;;
23416;SDS011;11881;42.432;25.632;2022-08-21T14:28:26;11.10;;;7.03;;
23416;SDS011;11881;42.432;25.632;2022-08-21T14:30:51;11.80;;;6.63;;
23416;SDS011;11881;42.432;25.632;2022-08-21T14:33:22;17.17;;;7.77;;
23416;SDS011;11881;42.432;25.632;2022-08-21T14:35:52;10.73;;;6.90;;
23416;SDS011;11881;42.432;25.632;2022-08-21T14:38:19;15.17;;;7.07;;
23416;SDS011;11881;42.432;25.632;2022-08-21T14:40:48;10.97;;;6.30;;
23416;SDS011;11881;42.432;25.632;2022-08-21T14:43:15;11.87;;;6.20;;
23416;SDS011;11881;42.432;25.632;2022-08-21T14:45:41;10.27;;;6.30;;
23416;SDS011;11881;42.432;25.632;2022-08-21T14:48:08;16.87;;;6.67;;
23416;SDS011;11881;42.432;25.632;2022-08-21T14:50:34;13.30;;;7.33;;
23416;SDS011;11881;42.432;25.632;2022-08-21T14:53:00;14.63;;;6.80;;
23416;SDS011;11881;42.432;25.632;2022-08-21T14:55:26;12.03;;;7.37;;
23416;SDS011;11881;42.432;25.632;2022-08-21T14:57:52;14.10;;;7.57;;
23416;SDS011;11881;42.432;25.632;2022-08-21T15:00:20;12.83;;;7.57;;
23416;SDS011;11881;42.432;25.632;2022-08-21T15:02:50;10.33;;;7.10;;
23416;SDS011;11881;42.432;25.632;2022-08-21T15:05:17;11.77;;;7.43;;
23416;SDS011;11881;42.432;25.632;2022-08-21T15:07:42;13.57;;;7.67;;
23416;SDS011;11881;42.432;25.632;2022-08-21T15:10:09;10.80;;;7.47;;
23416;SDS011;11881;42.432;25.632;2022-08-21T15:12:36;9.90;;;5.70;;
23416;SDS011;11881;42.432;25.632;2022-08-21T15:15:04;10.97;;;6.30;;
23416;SDS011;11881;42.432;25.632;2022-08-21T15:17:30;8.63;;;5.20;;
23416;SDS011;11881;42.432;25.632;2022-08-21T15:19:56;9.10;;;5.50;;
23416;SDS011;11881;42.432;25.632;2022-08-21T15:22:21;9.63;;;5.80;;
23416;SDS011;11881;42.432;25.632;2022-08-21T15:24:47;8.13;;;5.00;;
23416;SDS011;11881;42.432;25.632;2022-08-21T15:27:12;8.70;;;4.63;;
23416;SDS011;11881;42.432;25.632;2022-08-21T15:29:41;10.60;;;4.90;;
23416;SDS011;11881;42.432;25.632;2022-08-21T15:34:53;11.63;;;4.80;;
23416;SDS011;11881;42.432;25.632;2022-08-21T15:37:20;10.40;;;4.60;;
23416;SDS011;11881;42.432;25.632;2022-08-21T15:39:46;12.60;;;6.17;;
23416;SDS011;11881;42.432;25.632;2022-08-21T15:42:12;9.03;;;4.87;;
23416;SDS011;11881;42.432;25.632;2022-08-21T15:44:40;9.27;;;4.90;;
23416;SDS011;11881;42.432;25.632;2022-08-21T15:47:30;7.23;;;5.17;;
23416;SDS011;11881;42.432;25.632;2022-08-21T15:49:54;8.47;;;4.60;;
23416;SDS011;11881;42.432;25.632;2022-08-21T15:52:20;12.83;;;5.27;;
23416;SDS011;11881;42.432;25.632;2022-08-21T15:54:46;10.43;;;5.10;;
23416;SDS011;11881;42.432;25.632;2022-08-21T15:57:13;10.13;;;4.90;;
23416;SDS011;11881;42.432;25.632;2022-08-21T15:59:42;12.03;;;5.30;;
23416;SDS011;11881;42.432;25.632;2022-08-21T16:02:15;8.43;;;5.83;;